Terminal Aerodrome Forecast
Issued by NWS

Home | Current Version | Previous Version | Text Only | Print | Product List | Glossary On
Versions: 1 2 3 4 5 6 7 8 9 10 11 12 13 14 15 16 17 18 19
000
FTUS44 KMAF 281700
TAFCNM
TAF
KCNM 281732Z 2818/2918 02017G25KT P6SM SCT090 BKN150
     FM282100 14010KT P6SM SCT090 BKN150 BKN200
     FM290200 14008KT P6SM BKN150 BKN200=

USA.gov is the U.S. government's official web portal to all federal, state and local government web resources and services.